Current Mesonet Data Display

Graphs and maps are handy to obtain an immediate visual picture of what a weather variable has done over time and space. Sometimes a meteorologist needs the actual numbers and those can be displayed in a table. One dimension (across) of the table shows the weather parameters, the other (up and down) shows the different weather stations of the mesonet. This way a meteorologist can make easy comparisons between different parameters and between different locations. The table below displays the current conditions at all of the USA Mesonet stations (A more detailed display is available at the CHILI website)


Station Observation Time Temperature Dew Point Pressure Wind Speed Wind Direction
Agricola2026-05-06 00:04:49 66.95°F 65.25°F 0.00" 1.06 mph 85.38°
AndalusiaStation Offline
Ashford North2026-05-06 00:05:20 66.47°F 62.55°F 29.97" 0.80 mph 188.35°
Atmore2026-05-06 00:05:03 67.24°F 64.94°F 0.00" 5.85 mph 172.37°
Bay Minette FS2026-05-06 00:05:03 67.24°F 64.04°F 30.20" 4.64 mph 187.13°
Bayou La Batre2026-05-06 00:05:03 72.57°F 67.75°F 0.00" 7.38 mph 161.59°
Castleberry2026-05-06 00:05:59 63.10°F 61.48°F 29.95" 0.73 mph 194.61°
Dixie2026-05-06 00:05:01 66.55°F 65.69°F 30.11" 0.95 mph 149.09°
Elberta2026-05-06 00:05:13 66.79°F 65.49°F 0.00" 1.83 mph 178.50°
Fairhope2026-05-06 00:05:51 66.98°F 64.88°F 0.00" 5.26 mph 148.40°
Florala2026-05-06 00:02:40 66.14°F 63.91°F 29.99" 0.00 mph 174.48°
Foley2026-05-06 00:05:33 69.65°F 66.25°F 29.93" 2.12 mph 165.89°
Gasque2026-05-06 00:05:35 70.69°F 67.81°F 29.93" 0.95 mph 176.50°
Geneva2026-05-06 00:05:33 66.56°F 63.71°F 0.00" 1.46 mph 170.55°
Grand Bay2026-05-06 00:05:00 69.74°F 67.06°F 0.00" 2.67 mph 165.59°
Jay2026-05-06 00:05:01 67.70°F 64.69°F 30.11" 5.55 mph 165.52°
Kinston2026-05-06 00:05:58 64.34°F 62.08°F 29.95" 0.00 mph 140.88°
Leakesville2026-05-06 00:06:14 67.40°F 64.99°F 0.00" 0.51 mph 186.64°
Loxley2026-05-06 00:09:57 67.59°F 64.57°F 0.00" 7.45 mph 175.15°
Mobile (Dog River)2026-05-06 00:05:01 72.53°F 67.85°F 0.00" 5.55 mph 145.22°
Mobile (USA Campus West)2026-05-06 00:04:59 69.93°F 65.33°F 0.00" 3.36 mph 184.61°
Mount Vernon2026-05-06 00:05:03 66.46°F 64.46°F 0.00" 2.52 mph 188.52°
Pascagoula2026-05-06 00:06:51 72.42°F 67.71°F 0.00" 3.87 mph 212.59°
Poarch Creek2026-05-06 00:05:57 65.95°F 62.68°F 0.00" 2.27 mph 153.88°
Robertsdale2026-05-06 00:05:43 68.13°F 64.89°F 29.91" 3.73 mph 173.59°
Saraland2026-05-06 00:05:00 69.44°F 66.29°F 0.00" 0.88 mph 192.29°